Kirkby-in-Ashfield, United Kingdom
Current Conditions -  °F | °C
As of 11:20 AM on Tuesday 21 Oct 2014 (Local Time) from EGNX Reporting Station
Rain Showers Rain Showers  
Wind Chill: 50°   Ceiling: 3000
Heat Index: 50°   Visibility: 6mi
Dew Point: 43°   Wind: 22mph
Humidity: 76%   Direction: 280°W
Pressure: 29.59"   Gusts: NA
Location:  53.1°N, 1.26°W
Report Text: EGNX 211020Z 28019KT 9999 -SHRA FEW012 BKN030 10/06 Q1002 RESHRA
Loading
Personal Weather Stations






























Interactive Weather Map New forecast layout! Learn more

10-Day Weather Forecast

Advertisements
Track Severe Weather on mobile